Terminal Aerodrome Forecast
Issued by NWS

Home | Current Version | Previous Version | Text Only | Print | Product List | Glossary Off
Versions: 1 2 3 4 5 6 7 8 9 10 11 12 13 14 15

000
FTUS43 KICT 230039 AAA
TAFHUT
TAF AMD
KHUT 230039Z 2301/2324 18010KT P6SM SCT250
     FM230115 34015G25KT P6SM VCTS SCT080CB
     FM230300 02010KT P6SM SCT250
     FM230800 07005KT P6SM SCT100 BKN250=

USA.gov is the U.S. government's official web portal to all federal, state and local government web resources and services.